createdAt,value
2022-12-09T00:00:06.884Z,55.80
2022-12-09T00:02:33.923Z,50.23
2022-12-09T00:05:00.489Z,60.67
2022-12-09T00:07:27.250Z,60.43
2022-12-09T00:09:53.836Z,54.07
2022-12-09T00:12:20.323Z,49.23
2022-12-09T00:14:46.682Z,48.63
2022-12-09T00:17:13.443Z,46.90
2022-12-09T00:19:40.112Z,44.63
2022-12-09T00:22:06.528Z,50.83
2022-12-09T00:24:32.859Z,54.47
2022-12-09T00:26:59.314Z,52.17
2022-12-09T00:29:25.699Z,56.10
2022-12-09T00:31:52.082Z,51.53
2022-12-09T00:34:18.516Z,52.87
2022-12-09T00:36:45.026Z,50.40
2022-12-09T00:39:12.205Z,50.13
2022-12-09T00:41:38.928Z,55.27
2022-12-09T00:44:05.683Z,51.63
2022-12-09T00:46:32.349Z,52.13
2022-12-09T00:48:58.792Z,55.00
2022-12-09T00:51:25.684Z,48.60
2022-12-09T00:53:55.615Z,59.37
2022-12-09T00:56:24.251Z,47.47
2022-12-09T00:58:50.604Z,50.97
2022-12-09T01:01:17.031Z,48.33
2022-12-09T01:03:43.787Z,45.27
2022-12-09T01:06:14.312Z,52.17
2022-12-09T01:08:42.845Z,53.80
2022-12-09T01:11:16.447Z,51.90
2022-12-09T01:13:42.850Z,50.33
2022-12-09T01:16:24.755Z,53.77
2022-12-09T01:18:53.288Z,48.00
2022-12-09T01:21:19.812Z,45.77
2022-12-09T01:23:46.621Z,45.03
2022-12-09T01:26:13.348Z,49.00
2022-12-09T01:28:40.268Z,53.83
2022-12-09T01:31:15.686Z,53.90
2022-12-09T01:33:43.517Z,53.70
2022-12-09T01:36:13.788Z,51.93
2022-12-09T01:38:41.232Z,57.27
2022-12-09T01:41:07.804Z,50.50
2022-12-09T01:43:34.474Z,42.03
2022-12-09T01:46:00.864Z,53.63
2022-12-09T01:48:31.637Z,53.20
2022-12-09T01:51:03.323Z,58.13
2022-12-09T01:53:35.409Z,44.70
2022-12-09T01:56:07.260Z,53.13
2022-12-09T01:58:33.871Z,53.37
2022-12-09T02:01:00.689Z,48.43
2022-12-09T02:03:27.268Z,49.40
2022-12-09T02:05:54.071Z,56.63
2022-12-09T02:08:20.711Z,54.73
2022-12-09T02:11:16.092Z,47.83
2022-12-09T02:14:18.098Z,57.10
2022-12-09T02:17:17.145Z,44.17
2022-12-09T02:20:10.009Z,51.47
2022-12-09T02:22:49.917Z,46.43
2022-12-09T02:25:28.993Z,51.87
2022-12-09T02:28:13.991Z,57.47
2022-12-09T02:30:52.183Z,63.13
2022-12-09T02:33:40.795Z,47.93
2022-12-09T02:36:16.716Z,56.83
2022-12-09T02:38:45.054Z,52.70
2022-12-09T02:41:33.653Z,46.00
2022-12-09T02:44:12.447Z,58.97
2022-12-09T02:46:41.125Z,54.23
2022-12-09T02:49:10.840Z,58.57
2022-12-09T02:51:42.202Z,48.27
2022-12-09T02:54:17.237Z,45.73
2022-12-09T02:56:51.829Z,46.03
2022-12-09T02:59:18.586Z,44.53
2022-12-09T03:01:51.233Z,40.20
2022-12-09T03:04:22.994Z,45.27
2022-12-09T03:06:54.846Z,42.97
2022-12-09T03:09:25.997Z,48.37
2022-12-09T03:11:55.187Z,45.60
2022-12-09T03:14:36.108Z,48.60
2022-12-09T03:17:21.160Z,47.90
2022-12-09T03:19:52.782Z,45.83
2022-12-09T03:22:24.172Z,44.27
2022-12-09T03:24:57.705Z,44.93
2022-12-09T03:27:33.684Z,39.43
2022-12-09T03:30:03.292Z,36.17
2022-12-09T03:32:31.846Z,42.23
2022-12-09T03:35:04.600Z,39.93
2022-12-09T03:37:33.009Z,43.87
2022-12-09T03:40:00.701Z,45.00
2022-12-09T03:42:36.194Z,37.67
2022-12-09T03:45:09.663Z,36.37
2022-12-09T03:47:37.079Z,40.83
2022-12-09T03:50:06.599Z,44.53
2022-12-09T03:52:47.714Z,38.33
2022-12-09T03:55:33.842Z,35.23
2022-12-09T03:58:03.534Z,31.57
2022-12-09T04:00:31.117Z,35.23
2022-12-09T04:02:57.628Z,35.37
2022-12-09T04:05:24.448Z,36.33
2022-12-09T04:07:51.118Z,41.03
2022-12-09T04:10:17.566Z,34.33
2022-12-09T04:12:43.986Z,31.63
2022-12-09T04:15:10.590Z,32.53
2022-12-09T04:17:37.063Z,34.40
2022-12-09T04:20:04.135Z,39.83
2022-12-09T04:22:30.681Z,45.57
2022-12-09T04:24:57.332Z,46.03
2022-12-09T04:27:23.882Z,40.30
2022-12-09T04:29:50.638Z,32.60
2022-12-09T04:32:17.170Z,40.60
2022-12-09T04:34:44.184Z,40.20
2022-12-09T04:37:10.607Z,37.07
2022-12-09T04:39:37.853Z,47.33
2022-12-09T04:42:04.218Z,43.33
2022-12-09T04:44:31.036Z,40.53
2022-12-09T04:46:57.733Z,37.37
2022-12-09T04:49:24.444Z,37.03
2022-12-09T04:51:51.007Z,40.77
2022-12-09T04:54:17.394Z,39.33
2022-12-09T04:56:44.488Z,42.33
2022-12-09T04:59:11.095Z,45.80
2022-12-09T05:01:37.912Z,39.80
2022-12-09T05:04:04.877Z,37.97
2022-12-09T05:06:32.065Z,41.57
2022-12-09T05:08:58.846Z,36.17
2022-12-09T05:11:25.956Z,37.13
2022-12-09T05:13:56.027Z,42.70
2022-12-09T05:16:23.188Z,37.93
2022-12-09T05:18:50.018Z,34.63
2022-12-09T05:21:18.797Z,44.33
2022-12-09T05:23:46.487Z,42.53
2022-12-09T05:26:15.451Z,43.50
2022-12-09T05:28:42.474Z,43.63
2022-12-09T05:31:15.535Z,42.40
2022-12-09T05:33:43.223Z,36.73
2022-12-09T05:36:11.229Z,39.73
2022-12-09T05:38:38.250Z,35.13
2022-12-09T05:41:05.333Z,32.97
2022-12-09T05:43:33.353Z,40.40
2022-12-09T05:46:01.840Z,53.70
2022-12-09T05:48:28.736Z,55.47
2022-12-09T05:51:07.481Z,34.80
2022-12-09T05:53:34.628Z,37.03
2022-12-09T05:56:02.092Z,46.33
2022-12-09T05:58:28.915Z,37.73
2022-12-09T06:00:58.037Z,37.07
2022-12-09T06:03:25.440Z,32.50
2022-12-09T06:05:52.378Z,41.83
2022-12-09T06:08:19.064Z,42.47
2022-12-09T06:10:46.287Z,44.33
2022-12-09T06:13:12.840Z,41.00
2022-12-09T06:15:40.384Z,41.90
2022-12-09T06:18:07.178Z,41.83
2022-12-09T06:20:33.729Z,36.57
2022-12-09T06:23:00.166Z,36.63
2022-12-09T06:25:26.830Z,41.60
2022-12-09T06:27:53.892Z,36.83
2022-12-09T06:30:20.627Z,38.37
2022-12-09T06:32:47.568Z,39.83
2022-12-09T06:35:15.198Z,44.30
2022-12-09T06:37:42.349Z,32.00
2022-12-09T06:40:09.406Z,37.40
2022-12-09T06:42:36.431Z,39.40
2022-12-09T06:45:03.812Z,46.67
2022-12-09T06:47:30.477Z,43.37
2022-12-09T06:50:04.390Z,52.97
2022-12-09T06:52:32.900Z,38.23
2022-12-09T06:54:59.448Z,35.33
2022-12-09T06:57:26.248Z,38.10
2022-12-09T06:59:53.058Z,45.33
2022-12-09T07:02:19.762Z,47.07
2022-12-09T07:04:46.886Z,46.63
2022-12-09T07:07:15.134Z,34.07
2022-12-09T07:09:41.936Z,40.87
2022-12-09T07:12:08.616Z,36.57
2022-12-09T07:14:36.365Z,35.37
2022-12-09T07:17:03.879Z,32.20
2022-12-09T07:19:31.359Z,42.43
2022-12-09T07:21:58.040Z,36.77
2022-12-09T07:24:25.426Z,36.50
2022-12-09T07:26:52.628Z,34.57
2022-12-09T07:29:19.494Z,33.73
2022-12-09T07:31:47.661Z,38.57
2022-12-09T07:34:14.513Z,48.43
2022-12-09T07:36:41.509Z,45.20
2022-12-09T07:39:12.186Z,41.57
2022-12-09T07:41:40.035Z,39.13
2022-12-09T07:44:06.845Z,35.00
2022-12-09T07:46:33.446Z,38.83
2022-12-09T07:49:02.777Z,36.23
2022-12-09T07:51:29.620Z,36.03
2022-12-09T07:53:57.136Z,37.37
2022-12-09T07:56:24.776Z,36.90
2022-12-09T07:58:53.160Z,36.43
2022-12-09T08:01:29.382Z,38.00
2022-12-09T08:03:56.750Z,42.90
2022-12-09T08:06:27.258Z,36.77
2022-12-09T08:08:54.994Z,36.40
2022-12-09T08:11:27.468Z,36.10
2022-12-09T08:13:57.656Z,37.73
2022-12-09T08:16:25.232Z,40.13
2022-12-09T08:18:53.735Z,38.20
2022-12-09T08:21:25.578Z,34.00
2022-12-09T08:23:52.844Z,37.90
2022-12-09T08:26:22.686Z,31.50
2022-12-09T08:28:50.416Z,29.83
2022-12-09T08:31:20.869Z,34.57
2022-12-09T08:33:48.370Z,36.23
2022-12-09T08:36:19.757Z,41.83
2022-12-09T08:38:47.480Z,37.73
2022-12-09T08:41:21.516Z,41.77
2022-12-09T08:43:48.570Z,36.33
2022-12-09T08:46:15.470Z,42.90
2022-12-09T08:48:42.841Z,34.97
2022-12-09T08:51:11.571Z,29.10
2022-12-09T08:53:38.516Z,31.50
2022-12-09T08:56:12.873Z,29.40
2022-12-09T08:58:40.352Z,30.00
2022-12-09T09:01:07.259Z,23.33
2022-12-09T09:03:34.319Z,21.10
2022-12-09T09:06:09.191Z,23.47
2022-12-09T09:08:37.411Z,19.10
2022-12-09T09:11:10.403Z,37.80
2022-12-09T09:13:39.239Z,27.00
2022-12-09T09:16:10.522Z,25.53
2022-12-09T09:18:37.688Z,30.43
2022-12-09T09:21:06.259Z,20.47
2022-12-09T09:23:32.678Z,27.47
2022-12-09T09:25:59.169Z,33.77
2022-12-09T09:28:30.686Z,29.50
2022-12-09T09:31:03.280Z,34.53
2022-12-09T09:33:30.756Z,32.00
2022-12-09T09:36:02.791Z,37.53
2022-12-09T09:38:35.387Z,28.60
2022-12-09T09:41:07.605Z,34.70
2022-12-09T09:43:38.996Z,34.73
2022-12-09T09:46:06.257Z,35.40
2022-12-09T09:48:35.932Z,35.07
2022-12-09T09:51:14.512Z,21.53
2022-12-09T09:53:42.418Z,28.60
2022-12-09T09:56:36.959Z,28.17
2022-12-09T09:59:06.544Z,30.40
2022-12-09T10:01:35.735Z,27.30
2022-12-09T10:04:33.706Z,32.57
2022-12-09T10:07:15.987Z,25.77
2022-12-09T10:09:53.196Z,31.43
2022-12-09T10:12:30.541Z,29.23
2022-12-09T10:15:09.663Z,26.00
2022-12-09T10:17:49.176Z,28.70
2022-12-09T10:20:21.228Z,33.70
2022-12-09T10:23:01.048Z,39.23
2022-12-09T10:25:31.073Z,39.17
2022-12-09T10:28:12.892Z,37.37
2022-12-09T10:30:43.878Z,40.30
2022-12-09T10:33:17.401Z,29.63
2022-12-09T10:35:45.145Z,24.93
2022-12-09T10:38:16.203Z,32.40
2022-12-09T10:40:45.954Z,25.17
2022-12-09T10:43:37.401Z,33.43
2022-12-09T10:46:20.089Z,19.40
2022-12-09T10:48:47.788Z,21.53
2022-12-09T10:51:25.965Z,21.03
2022-12-09T10:54:03.502Z,32.70
2022-12-09T10:56:35.817Z,40.13
2022-12-09T10:59:11.617Z,36.23
2022-12-09T11:01:53.165Z,40.27
2022-12-09T11:04:36.809Z,25.33
2022-12-09T11:07:13.094Z,35.87
2022-12-09T11:09:43.789Z,39.00
2022-12-09T11:12:27.344Z,37.20
2022-12-09T11:14:57.737Z,42.03
2022-12-09T11:18:04.313Z,32.47
2022-12-09T11:20:33.694Z,32.43
2022-12-09T11:23:12.374Z,34.80
2022-12-09T11:25:51.832Z,24.50
2022-12-09T11:28:18.167Z,22.43
2022-12-09T11:31:32.725Z,28.57
2022-12-09T11:34:06.778Z,30.00
2022-12-09T11:36:40.357Z,31.67
2022-12-09T11:39:29.278Z,31.00
2022-12-09T11:42:18.902Z,30.77
2022-12-09T11:45:02.334Z,33.47
2022-12-09T11:48:13.503Z,24.40
2022-12-09T11:50:31.311Z,30.27
2022-12-09T11:53:12.982Z,25.80
2022-12-09T11:55:51.061Z,26.73
2022-12-09T11:58:29.443Z,27.70
2022-12-09T12:01:02.690Z,33.87
2022-12-09T12:03:42.206Z,25.20
2022-12-09T12:06:17.641Z,31.57
2022-12-09T12:08:49.666Z,28.03
2022-12-09T12:11:21.039Z,29.67
2022-12-09T12:13:50.603Z,30.17
2022-12-09T12:16:39.488Z,29.50
2022-12-09T12:19:17.338Z,20.20
2022-12-09T12:21:55.683Z,26.10
2022-12-09T12:24:59.599Z,22.70
2022-12-09T12:27:59.883Z,25.10
2022-12-09T12:30:39.555Z,18.13
2022-12-09T12:36:33.574Z,28.23
2022-12-09T12:39:19.561Z,18.33
2022-12-09T12:42:06.947Z,19.47
2022-12-09T12:45:20.090Z,18.37
2022-12-09T12:48:03.274Z,25.43
2022-12-09T12:50:55.575Z,18.10
2022-12-09T12:53:34.434Z,17.97
2022-12-09T12:56:27.671Z,28.07
2022-12-09T12:59:09.720Z,18.13
2022-12-09T13:01:51.651Z,14.70
2022-12-09T13:04:34.039Z,15.63
2022-12-09T13:07:09.653Z,15.50
2022-12-09T13:09:51.124Z,21.70
2022-12-09T13:12:45.273Z,24.37
2022-12-09T13:15:16.746Z,19.30
2022-12-09T13:17:45.918Z,25.10
2022-12-09T13:20:24.880Z,16.23
2022-12-09T13:23:01.643Z,32.37
2022-12-09T13:25:46.298Z,21.10
2022-12-09T13:28:37.058Z,21.40
2022-12-09T13:31:08.995Z,22.33
2022-12-09T13:33:50.302Z,22.10
2022-12-09T13:36:36.290Z,18.03
2022-12-09T13:39:03.918Z,20.47
2022-12-09T13:41:30.183Z,16.80
2022-12-09T13:44:12.732Z,20.33
2022-12-09T13:46:42.620Z,21.17
2022-12-09T13:49:11.155Z,22.93
2022-12-09T13:51:51.582Z,16.10
2022-12-09T13:54:24.585Z,23.23
2022-12-09T13:57:40.313Z,17.03
2022-12-09T14:00:15.079Z,16.43
2022-12-09T14:03:00.178Z,22.03
2022-12-09T14:05:30.079Z,16.70
2022-12-09T14:08:04.572Z,17.90
2022-12-09T14:10:43.365Z,16.47
2022-12-09T14:13:29.717Z,23.30
2022-12-09T14:16:17.117Z,18.60
2022-12-09T14:18:44.421Z,18.57
2022-12-09T14:21:19.648Z,19.97
2022-12-09T14:24:07.871Z,26.93
2022-12-09T14:26:39.497Z,18.43
2022-12-09T14:29:05.932Z,19.57
2022-12-09T14:32:02.084Z,19.73
2022-12-09T14:34:35.387Z,25.77
2022-12-09T14:37:34.232Z,22.77
2022-12-09T14:40:25.117Z,20.20
2022-12-09T14:42:59.956Z,19.33
2022-12-09T14:45:38.179Z,20.80
2022-12-09T14:48:10.495Z,23.70
2022-12-09T14:50:38.630Z,26.03
2022-12-09T14:53:18.284Z,20.13
2022-12-09T14:55:44.838Z,22.27
2022-12-09T14:58:19.895Z,27.80
2022-12-09T15:00:46.641Z,18.90
2022-12-09T15:03:42.788Z,25.93
2022-12-09T15:06:12.718Z,22.33
2022-12-09T15:08:41.669Z,26.50
2022-12-09T15:11:13.590Z,28.87
2022-12-09T15:13:42.531Z,24.50
2022-12-09T15:16:14.594Z,22.37
2022-12-09T15:18:43.262Z,26.03
2022-12-09T15:21:10.147Z,21.57
2022-12-09T15:23:38.841Z,25.50
2022-12-09T15:26:07.854Z,24.67
2022-12-09T15:28:37.266Z,20.10
2022-12-09T15:31:16.292Z,27.23
2022-12-09T15:33:45.725Z,24.20
2022-12-09T15:36:22.096Z,27.83
2022-12-09T15:38:54.818Z,19.77
2022-12-09T15:41:40.616Z,24.10
2022-12-09T15:44:11.322Z,22.03
2022-12-09T15:46:40.649Z,27.07
2022-12-09T15:49:11.297Z,23.97
2022-12-09T15:51:40.363Z,23.03
2022-12-09T15:54:11.688Z,23.57
2022-12-09T15:57:00.908Z,29.33
2022-12-09T15:59:35.099Z,23.63
2022-12-09T16:02:01.844Z,36.77
2022-12-09T16:04:34.191Z,38.87
2022-12-09T16:07:08.651Z,34.53
2022-12-09T16:09:35.860Z,43.17
2022-12-09T16:12:02.341Z,37.50
2022-12-09T16:14:43.006Z,39.00
2022-12-09T16:17:24.660Z,55.13
2022-12-09T16:19:51.167Z,52.97
2022-12-09T16:22:25.035Z,61.00
2022-12-09T16:27:48.418Z,78.07
2022-12-09T16:30:23.605Z,88.53
2022-12-09T16:32:55.340Z,89.43
2022-12-09T16:35:43.324Z,98.27
2022-12-09T16:38:09.601Z,111.03
2022-12-09T16:40:45.141Z,107.37
2022-12-09T16:43:17.668Z,120.03
2022-12-09T16:45:51.205Z,106.83
2022-12-09T16:48:19.089Z,113.73
2022-12-09T16:50:53.038Z,122.63
2022-12-09T16:53:25.553Z,110.77
2022-12-09T16:55:55.239Z,118.97
2022-12-09T16:58:22.348Z,118.10
2022-12-09T17:00:49.598Z,109.50
2022-12-09T17:03:22.403Z,113.40
2022-12-09T17:05:48.752Z,113.00
2022-12-09T17:08:15.180Z,96.33
2022-12-09T17:10:42.266Z,107.97
2022-12-09T17:13:08.635Z,84.80
2022-12-09T17:15:35.059Z,86.67
2022-12-09T17:18:01.441Z,90.07
2022-12-09T17:20:27.796Z,82.60
2022-12-09T17:22:54.099Z,73.23
2022-12-09T17:25:20.401Z,75.57
2022-12-09T17:27:46.718Z,79.93
2022-12-09T17:30:13.380Z,80.63
2022-12-09T17:32:39.831Z,91.57
2022-12-09T17:35:12.352Z,87.13
2022-12-09T17:37:39.189Z,81.03
2022-12-09T17:40:05.791Z,75.63
2022-12-09T17:42:33.057Z,80.33
2022-12-09T17:44:59.419Z,86.57
2022-12-09T17:47:26.984Z,80.17
2022-12-09T17:49:53.277Z,86.03
2022-12-09T17:52:19.620Z,79.23
2022-12-09T17:54:47.350Z,90.60
2022-12-09T17:57:13.809Z,81.97
2022-12-09T17:59:40.169Z,86.07
2022-12-09T18:02:06.901Z,73.90
2022-12-09T18:04:33.288Z,85.40
2022-12-09T18:06:59.658Z,80.70
2022-12-09T18:09:26.033Z,62.33
2022-12-09T18:11:52.504Z,94.80
2022-12-09T18:14:20.323Z,67.20
2022-12-09T18:16:46.744Z,63.20
2022-12-09T18:19:16.371Z,78.43
2022-12-09T18:21:44.158Z,83.63
2022-12-09T18:24:10.691Z,79.37
2022-12-09T18:26:41.545Z,66.57
2022-12-09T18:29:08.198Z,72.43
2022-12-09T18:31:34.939Z,75.23
2022-12-09T18:34:01.260Z,78.87
2022-12-09T18:36:28.745Z,73.67
2022-12-09T18:38:55.162Z,73.63
2022-12-09T18:41:24.220Z,66.67
2022-12-09T18:43:52.209Z,67.23
2022-12-09T18:46:25.380Z,70.87
2022-12-09T18:49:00.330Z,68.43
2022-12-09T18:51:27.904Z,72.47
2022-12-09T18:53:56.215Z,74.67
2022-12-09T18:56:22.531Z,76.20
2022-12-09T19:01:39.357Z,74.40
2022-12-09T19:04:08.557Z,80.30
2022-12-09T19:06:37.750Z,73.83
2022-12-09T19:09:09.028Z,69.87
2022-12-09T19:11:38.298Z,74.10
2022-12-09T19:14:07.212Z,79.50
2022-12-09T19:16:34.899Z,70.37
2022-12-09T19:19:08.777Z,72.77
2022-12-09T19:21:36.457Z,70.47
2022-12-09T19:24:02.780Z,69.13
2022-12-09T19:26:31.452Z,73.00
2022-12-09T19:29:01.276Z,69.60
2022-12-09T19:31:30.105Z,67.03
2022-12-09T19:34:01.740Z,65.97
2022-12-09T19:36:29.593Z,77.00
2022-12-09T19:38:57.873Z,80.03
2022-12-09T19:41:24.251Z,71.83
2022-12-09T19:43:55.310Z,69.07
2022-12-09T19:46:21.673Z,68.33
2022-12-09T19:48:48.083Z,66.40
2022-12-09T19:51:19.084Z,73.77
2022-12-09T19:53:47.525Z,75.97
2022-12-09T19:56:16.700Z,77.23
2022-12-09T19:58:43.805Z,68.57
2022-12-09T20:01:13.315Z,63.30
2022-12-09T20:03:41.521Z,63.10
2022-12-09T20:06:11.239Z,76.17
2022-12-09T20:08:38.704Z,71.93
2022-12-09T20:11:09.002Z,75.83
2022-12-09T20:13:35.378Z,74.70
2022-12-09T20:16:06.050Z,71.53
2022-12-09T20:18:32.469Z,65.80
2022-12-09T20:21:06.612Z,67.27
2022-12-09T20:23:35.327Z,77.07
2022-12-09T20:26:11.105Z,69.73
2022-12-09T20:28:39.732Z,71.20
2022-12-09T20:31:33.938Z,78.70
2022-12-09T20:34:03.025Z,64.03
2022-12-09T20:36:32.398Z,66.70
2022-12-09T20:39:02.060Z,67.33
2022-12-09T20:41:28.986Z,74.20
2022-12-09T20:43:57.352Z,68.70
2022-12-09T20:46:27.584Z,69.53
2022-12-09T20:48:54.695Z,68.80
2022-12-09T20:51:31.638Z,63.67
2022-12-09T20:53:58.732Z,62.43
2022-12-09T20:56:27.029Z,57.67
2022-12-09T20:58:54.753Z,66.33
2022-12-09T21:01:28.882Z,60.07
2022-12-09T21:03:57.513Z,71.10
2022-12-09T21:06:26.523Z,67.50
2022-12-09T21:08:53.731Z,70.37
2022-12-09T21:11:23.580Z,70.30
2022-12-09T21:13:52.356Z,56.20
2022-12-09T21:16:22.106Z,75.53
2022-12-09T21:18:50.066Z,71.63
2022-12-09T21:21:17.702Z,67.67
2022-12-09T21:23:44.250Z,65.77
2022-12-09T21:26:15.910Z,65.97
2022-12-09T21:28:43.874Z,64.93
2022-12-09T21:31:22.143Z,71.60
2022-12-09T21:33:50.256Z,96.80
2022-12-09T21:36:25.871Z,72.90
2022-12-09T21:38:53.247Z,71.80
2022-12-09T21:41:22.226Z,69.90
2022-12-09T21:43:48.758Z,65.23
2022-12-09T21:46:18.783Z,69.60
2022-12-09T21:48:51.962Z,65.33
2022-12-09T21:51:19.926Z,62.50
2022-12-09T21:53:46.895Z,61.97
2022-12-09T21:56:17.547Z,70.90
2022-12-09T21:58:45.522Z,63.70
2022-12-09T22:01:16.539Z,54.80
2022-12-09T22:03:43.394Z,49.87
2022-12-09T22:06:10.700Z,60.90
2022-12-09T22:08:38.553Z,64.03
2022-12-09T22:11:17.827Z,66.87
2022-12-09T22:13:44.772Z,62.93
2022-12-09T22:16:18.192Z,64.13
2022-12-09T22:18:45.090Z,65.83
2022-12-09T22:21:24.576Z,63.60
2022-12-09T22:23:57.907Z,55.47
2022-12-09T22:26:25.200Z,55.93
2022-12-09T22:28:52.887Z,69.33
2022-12-09T22:31:26.289Z,71.83
2022-12-09T22:33:54.920Z,75.63
2022-12-09T22:36:21.827Z,71.53
2022-12-09T22:38:48.769Z,65.50
2022-12-09T22:41:18.311Z,67.47
2022-12-09T22:43:45.061Z,65.07
2022-12-09T22:46:14.874Z,67.20
2022-12-09T22:48:42.031Z,68.87
2022-12-09T22:51:17.831Z,68.20
2022-12-09T22:53:45.011Z,71.97
2022-12-09T22:56:12.461Z,72.83
2022-12-09T22:58:39.430Z,70.93
2022-12-09T23:01:14.347Z,66.70
2022-12-09T23:03:41.274Z,71.20
2022-12-09T23:06:08.302Z,79.67
2022-12-09T23:08:36.293Z,71.20
2022-12-09T23:11:05.017Z,76.27
2022-12-09T23:13:33.907Z,78.13
2022-12-09T23:16:05.766Z,62.27
2022-12-09T23:18:33.921Z,63.70
2022-12-09T23:21:13.197Z,66.37
2022-12-09T23:23:40.317Z,72.87
2022-12-09T23:26:12.026Z,72.83
2022-12-09T23:28:40.240Z,71.73
2022-12-09T23:31:11.229Z,71.17
2022-12-09T23:33:39.411Z,83.47
2022-12-09T23:36:08.878Z,61.27
2022-12-09T23:38:35.454Z,73.23
2022-12-09T23:41:02.355Z,71.50
2022-12-09T23:43:36.478Z,59.07
2022-12-09T23:46:15.792Z,68.40
2022-12-09T23:48:43.454Z,60.47
2022-12-09T23:51:30.896Z,69.00
2022-12-09T23:54:02.916Z,59.23
2022-12-09T23:56:31.662Z,73.17
2022-12-09T23:59:03.278Z,61.97
